メインページ
METAR-TAF:

METAR-TAF

空港 :

マレ, Hulhule Island, モルディブ

イブラヒム・ナシル国際空港

緯度: 04-12N, 経度: 073-32E, 海抜: 2m

現時点の気象観測

当レポートは34分前の23:00(UTC)に作成
西/北西の風 5kt
気温 28°C
湿度 79%
気圧 1010 hPa
視程10km以上
高度1800ftの雲はほとんどない, 塔状積雲.
高度28000ftの雲は散在している

METAR: VRMM 232300Z 30005KT 9999 FEW018TCU SCT280 28/24 Q1010 NOSIG

時間: 04:34 (23:34 UTC)

予報

当レポートは12時間34分前の11:00(UTC)に作成
予報は23日の 12時(UTC)から 24日の 18時(UTC)まで有効
西/北西の風 10kt
視程10km以上
高度1800ftの雲はほとんどない
23日の 13時(UTC)から 23日の 20時(UTC)まで一時的に
高度1900ftの雲はほとんどない, 積乱雲.

TAF: VRMM 231100Z 2312/2418 30010KT 9999 FEW018 TEMPO 2313/2320 FEW019CB

4,000以上の空港の気象観測と天気予報(METAR報とTAF報)

利用可能な観測所は地図上に黄色い丸と赤い丸で示す。

丸の上にカーソルを重ねると観測所名を参照できる。

次にクリックすると気象観測と天気予報を参照できる。

マップの切り替え:黒色「×」印の緑ボタンをクリックして拡大、「-」印の緑ボタンをクリックして縮小、緑色の三角印をクリックして隣りの地図に切り替え


METAR-TAF: